createdAt,value
2018-12-18T00:02:01.453Z,43.97
2018-12-18T00:04:32.083Z,44.03
2018-12-18T00:07:02.676Z,45.13
2018-12-18T00:09:31.425Z,38.33
2018-12-18T00:12:00.114Z,53.93
2018-12-18T00:14:28.821Z,42.07
2018-12-18T00:16:57.524Z,46.00
2018-12-18T00:19:26.377Z,41.63
2018-12-18T00:21:55.208Z,41.93
2018-12-18T00:24:24.011Z,41.70
2018-12-18T00:26:52.748Z,40.83
2018-12-18T00:29:21.534Z,39.67
2018-12-18T00:31:50.238Z,43.07
2018-12-18T00:34:18.887Z,43.63
2018-12-18T00:36:47.660Z,46.93
2018-12-18T00:39:16.324Z,40.37
2018-12-18T00:41:45.178Z,44.77
2018-12-18T00:44:13.838Z,41.67
2018-12-18T00:46:42.553Z,42.07
2018-12-18T00:49:11.238Z,43.10
2018-12-18T00:51:39.916Z,42.50
2018-12-18T00:54:09.679Z,43.20
2018-12-18T00:56:38.450Z,46.93
2018-12-18T00:59:07.222Z,42.27
2018-12-18T01:01:36.074Z,49.13
2018-12-18T01:04:04.871Z,43.00
2018-12-18T01:06:33.583Z,42.67
2018-12-18T01:09:02.426Z,42.87
2018-12-18T01:11:33.026Z,42.33
2018-12-18T01:14:01.883Z,49.00
2018-12-18T01:16:30.569Z,38.10
2018-12-18T01:18:59.384Z,41.00
2018-12-18T01:21:28.086Z,47.17
2018-12-18T01:23:56.904Z,38.20
2018-12-18T01:26:25.710Z,44.13
2018-12-18T01:28:54.460Z,41.23
2018-12-18T01:31:23.197Z,43.60
2018-12-18T01:33:51.902Z,46.37
2018-12-18T01:36:20.632Z,43.80
2018-12-18T01:38:49.455Z,42.10
2018-12-18T01:41:18.220Z,49.23
2018-12-18T01:43:46.982Z,41.57
2018-12-18T01:46:15.714Z,38.73
2018-12-18T01:48:44.383Z,45.50
2018-12-18T01:51:13.177Z,42.47
2018-12-18T01:53:41.931Z,48.97
2018-12-18T01:56:10.723Z,47.17
2018-12-18T01:58:39.444Z,42.80
2018-12-18T02:01:08.215Z,41.63
2018-12-18T02:03:36.928Z,41.37
2018-12-18T02:06:05.731Z,36.40
2018-12-18T02:08:34.479Z,43.37
2018-12-18T02:11:03.341Z,45.73
2018-12-18T02:13:32.160Z,46.97
2018-12-18T02:16:00.887Z,46.20
2018-12-18T02:18:29.670Z,44.40
2018-12-18T02:20:58.359Z,43.47
2018-12-18T02:23:27.051Z,40.87
2018-12-18T02:25:55.860Z,43.13
2018-12-18T02:28:24.598Z,49.50
2018-12-18T02:30:53.354Z,39.80
2018-12-18T02:33:22.133Z,46.17
2018-12-18T02:35:50.880Z,43.10
2018-12-18T02:38:19.606Z,45.53
2018-12-18T02:40:48.385Z,45.83
2018-12-18T02:43:17.432Z,55.30
2018-12-18T02:45:46.127Z,43.93
2018-12-18T02:48:15.035Z,47.63
2018-12-18T02:50:44.213Z,42.93
2018-12-18T02:53:13.006Z,48.90
2018-12-18T02:55:41.743Z,43.50
2018-12-18T02:58:10.571Z,44.70
2018-12-18T03:00:39.253Z,44.70
2018-12-18T03:03:07.930Z,43.17
2018-12-18T03:05:36.694Z,45.90
2018-12-18T03:08:06.497Z,40.70
2018-12-18T03:10:35.272Z,48.97
2018-12-18T03:13:04.070Z,45.83
2018-12-18T03:15:32.910Z,47.20
2018-12-18T03:18:01.697Z,45.33
2018-12-18T03:20:30.466Z,43.67
2018-12-18T03:22:59.192Z,47.57
2018-12-18T03:25:27.950Z,51.33
2018-12-18T03:27:56.626Z,47.87
2018-12-18T03:30:25.408Z,39.20
2018-12-18T03:32:56.025Z,48.53
2018-12-18T03:35:24.836Z,44.20
2018-12-18T03:37:53.615Z,45.43
2018-12-18T03:40:22.522Z,38.07
2018-12-18T03:42:51.236Z,48.40
2018-12-18T03:45:21.088Z,53.87
2018-12-18T03:47:49.821Z,41.17
2018-12-18T03:50:18.548Z,45.37
2018-12-18T03:52:47.284Z,48.60
2018-12-18T03:55:16.178Z,47.60
2018-12-18T03:57:46.887Z,44.23
2018-12-18T04:00:15.715Z,43.43
2018-12-18T04:02:45.567Z,41.63
2018-12-18T04:05:14.263Z,38.67
2018-12-18T04:07:42.987Z,40.70
2018-12-18T04:10:11.811Z,45.87
2018-12-18T04:12:40.580Z,48.70
2018-12-18T04:15:09.434Z,45.23
2018-12-18T04:17:38.149Z,49.97
2018-12-18T04:20:06.917Z,44.53
2018-12-18T04:22:35.682Z,43.53
2018-12-18T04:25:04.617Z,44.10
2018-12-18T04:27:33.387Z,37.23
2018-12-18T04:30:02.115Z,43.00
2018-12-18T04:32:31.143Z,43.93
2018-12-18T04:35:01.799Z,46.77
2018-12-18T04:37:30.615Z,42.90
2018-12-18T04:39:59.487Z,46.83
2018-12-18T04:42:28.230Z,39.30
2018-12-18T04:44:57.031Z,38.77
2018-12-18T04:47:25.766Z,43.50
2018-12-18T04:49:54.552Z,39.83
2018-12-18T04:52:23.245Z,42.77
2018-12-18T04:54:52.038Z,44.70
2018-12-18T04:57:20.779Z,42.27
2018-12-18T04:59:49.441Z,44.70
2018-12-18T05:02:18.121Z,41.70
2018-12-18T05:04:50.422Z,44.77
2018-12-18T05:07:17.779Z,49.00
2018-12-18T05:09:46.578Z,45.00
2018-12-18T05:12:15.351Z,41.80
2018-12-18T05:14:44.085Z,41.20
2018-12-18T05:17:12.797Z,53.87
2018-12-18T05:19:41.521Z,43.63
2018-12-18T05:22:10.323Z,48.60
2018-12-18T05:24:39.118Z,47.53
2018-12-18T05:27:11.143Z,42.43
2018-12-18T05:29:39.910Z,47.40
2018-12-18T05:32:08.648Z,40.60
2018-12-18T05:34:37.368Z,46.73
2018-12-18T05:37:06.170Z,50.33
2018-12-18T05:39:34.847Z,41.20
2018-12-18T05:42:03.682Z,40.43
2018-12-18T05:44:32.510Z,39.23
2018-12-18T05:47:01.234Z,40.93
2018-12-18T05:49:30.870Z,39.00
2018-12-18T05:51:59.855Z,41.40
2018-12-18T05:54:28.698Z,42.50
2018-12-18T05:56:57.430Z,35.57
2018-12-18T05:59:26.159Z,42.30
2018-12-18T06:01:54.952Z,39.20
2018-12-18T06:04:23.732Z,39.50
2018-12-18T06:06:52.391Z,42.80
2018-12-18T06:09:21.142Z,39.97
2018-12-18T06:11:49.788Z,44.13
2018-12-18T06:14:18.583Z,41.33
2018-12-18T06:16:47.379Z,44.17
2018-12-18T06:19:16.166Z,42.90
2018-12-18T06:21:44.832Z,43.80
2018-12-18T06:24:13.517Z,45.43
2018-12-18T06:26:42.174Z,46.30
2018-12-18T06:29:10.905Z,41.93
2018-12-18T06:31:39.714Z,36.53
2018-12-18T06:34:08.510Z,36.73
2018-12-18T06:36:37.558Z,42.77
2018-12-18T06:39:07.165Z,43.40
2018-12-18T06:41:35.874Z,41.90
2018-12-18T06:44:04.686Z,36.17
2018-12-18T06:46:33.338Z,37.93
2018-12-18T06:49:02.065Z,36.77
2018-12-18T06:51:30.864Z,40.47
2018-12-18T06:53:59.538Z,37.80
2018-12-18T06:56:28.282Z,42.17
2018-12-18T06:58:57.062Z,45.70
2018-12-18T07:01:25.874Z,42.27
2018-12-18T07:03:54.676Z,42.97
2018-12-18T07:06:23.363Z,49.90
2018-12-18T07:08:52.113Z,36.93
2018-12-18T07:11:20.782Z,40.80
2018-12-18T07:13:49.432Z,43.00
2018-12-18T07:16:18.219Z,40.10
2018-12-18T07:18:46.993Z,47.43
2018-12-18T07:21:16.186Z,40.67
2018-12-18T07:23:44.935Z,46.50
2018-12-18T07:26:13.761Z,43.70
2018-12-18T07:28:42.466Z,46.87
2018-12-18T07:31:11.310Z,43.17
2018-12-18T07:33:40.108Z,46.47
2018-12-18T07:36:08.800Z,46.60
2018-12-18T07:38:37.630Z,40.20
2018-12-18T07:41:06.346Z,44.47
2018-12-18T07:43:35.143Z,55.30
2018-12-18T07:46:03.930Z,48.77
2018-12-18T07:48:32.746Z,42.87
2018-12-18T07:51:01.399Z,45.43
2018-12-18T07:53:30.126Z,44.20
2018-12-18T07:56:00.322Z,45.67
2018-12-18T07:58:29.302Z,45.97
2018-12-18T08:00:58.083Z,42.90
2018-12-18T08:03:26.779Z,45.57
2018-12-18T08:05:55.503Z,39.00
2018-12-18T08:08:24.173Z,44.30
2018-12-18T08:10:52.891Z,43.93
2018-12-18T08:13:21.716Z,40.33
2018-12-18T08:15:50.501Z,47.10
2018-12-18T08:18:19.299Z,41.93
2018-12-18T08:20:47.959Z,44.07
2018-12-18T08:23:16.669Z,34.93
2018-12-18T08:25:45.418Z,38.83
2018-12-18T08:28:14.221Z,35.57
2018-12-18T08:30:42.961Z,39.47
2018-12-18T08:33:11.767Z,43.57
2018-12-18T08:35:40.556Z,37.03
2018-12-18T08:38:09.396Z,32.30
2018-12-18T08:40:38.080Z,54.87
2018-12-18T08:43:06.786Z,34.33
2018-12-18T08:45:35.558Z,34.37
2018-12-18T08:48:04.622Z,34.80
2018-12-18T08:50:33.324Z,34.90
2018-12-18T08:53:02.091Z,29.53
2018-12-18T08:55:30.942Z,30.90
2018-12-18T08:57:59.608Z,41.90
2018-12-18T09:00:28.359Z,30.90
2018-12-18T09:02:57.409Z,36.37
2018-12-18T09:05:26.083Z,44.87
2018-12-18T09:07:54.830Z,35.93
2018-12-18T09:10:23.681Z,33.77
2018-12-18T09:12:58.781Z,35.40
2018-12-18T09:15:32.899Z,34.77
2018-12-18T09:18:01.563Z,38.20
2018-12-18T09:20:30.286Z,31.77
2018-12-18T09:22:58.942Z,35.40
2018-12-18T09:25:27.775Z,37.17
2018-12-18T09:27:56.538Z,37.93
2018-12-18T09:30:25.275Z,37.23
2018-12-18T09:32:55.119Z,36.10
2018-12-18T09:35:23.819Z,45.03
2018-12-18T09:37:57.823Z,39.03
2018-12-18T09:40:28.468Z,39.57
2018-12-18T09:43:02.591Z,38.93
2018-12-18T09:45:31.374Z,37.53
2018-12-18T09:48:00.037Z,38.57
2018-12-18T09:50:28.772Z,41.83
2018-12-18T09:52:57.442Z,34.93
2018-12-18T09:55:26.152Z,33.20
2018-12-18T09:57:58.047Z,42.80
2018-12-18T10:00:26.913Z,33.83
2018-12-18T10:02:55.646Z,47.70
2018-12-18T10:05:24.367Z,36.10
2018-12-18T10:07:53.195Z,38.90
2018-12-18T10:10:21.963Z,40.20
2018-12-18T10:12:55.186Z,34.33
2018-12-18T10:15:24.594Z,49.03
2018-12-18T10:17:53.345Z,38.37
2018-12-18T10:20:22.075Z,39.60
2018-12-18T10:22:50.845Z,41.13
2018-12-18T10:25:20.547Z,46.13
2018-12-18T10:27:49.246Z,40.53
2018-12-18T10:30:17.934Z,42.03
2018-12-18T10:32:46.747Z,46.73
2018-12-18T10:35:15.523Z,43.50
2018-12-18T10:37:44.330Z,42.03
2018-12-18T10:40:13.138Z,46.40
2018-12-18T10:42:41.976Z,41.73
2018-12-18T10:45:14.649Z,36.50
2018-12-18T10:47:43.522Z,49.67
2018-12-18T10:50:12.366Z,38.13
2018-12-18T10:52:41.038Z,41.43
2018-12-18T10:55:09.780Z,35.07
2018-12-18T10:57:38.447Z,43.63
2018-12-18T11:00:13.699Z,35.70
2018-12-18T11:02:42.425Z,40.13
2018-12-18T11:05:11.134Z,40.17
2018-12-18T11:07:40.050Z,37.50
2018-12-18T11:10:08.938Z,32.43
2018-12-18T11:12:38.856Z,39.80
2018-12-18T11:15:08.679Z,38.03
2018-12-18T11:17:37.463Z,31.80
2018-12-18T11:20:06.975Z,42.93
2018-12-18T11:22:35.763Z,31.20
2018-12-18T11:25:05.218Z,35.20
2018-12-18T11:27:34.069Z,35.13
2018-12-18T11:30:02.889Z,33.60
2018-12-18T11:32:33.081Z,42.07
2018-12-18T11:35:01.991Z,39.20
2018-12-18T11:37:30.787Z,57.33
2018-12-18T11:39:59.514Z,34.90
2018-12-18T11:42:28.250Z,36.60
2018-12-18T11:44:57.028Z,46.80
2018-12-18T11:47:25.742Z,33.07
2018-12-18T11:49:54.462Z,46.70
2018-12-18T11:52:23.118Z,34.73
2018-12-18T11:54:51.868Z,38.43
2018-12-18T11:57:20.589Z,46.23
2018-12-18T11:59:49.358Z,43.10
2018-12-18T12:02:18.073Z,37.40
2018-12-18T12:04:46.894Z,35.13
2018-12-18T12:07:15.599Z,39.13
2018-12-18T12:09:44.453Z,43.97
2018-12-18T12:12:13.378Z,44.33
2018-12-18T12:14:42.230Z,46.20
2018-12-18T12:17:10.934Z,45.07
2018-12-18T12:19:39.703Z,59.33
2018-12-18T12:22:08.491Z,41.37
2018-12-18T12:24:37.210Z,41.87
2018-12-18T12:27:11.384Z,43.87
2018-12-18T12:29:40.103Z,40.23
2018-12-18T12:32:08.879Z,45.67
2018-12-18T12:34:37.670Z,38.83
2018-12-18T12:37:06.389Z,46.13
2018-12-18T12:39:35.186Z,42.27
2018-12-18T12:42:03.993Z,39.57
2018-12-18T12:44:32.726Z,41.30
2018-12-18T12:47:01.501Z,38.23
2018-12-18T12:49:35.911Z,40.13
2018-12-18T12:52:04.625Z,49.90
2018-12-18T12:54:33.380Z,36.53
2018-12-18T12:57:03.158Z,57.37
2018-12-18T12:59:31.906Z,35.53
2018-12-18T13:02:00.698Z,43.77
2018-12-18T13:04:29.491Z,34.90
2018-12-18T13:06:58.284Z,34.73
2018-12-18T13:09:27.165Z,34.53
2018-12-18T13:11:55.877Z,29.90
2018-12-18T13:14:24.585Z,27.27
2018-12-18T13:16:53.258Z,31.53
2018-12-18T13:19:22.027Z,38.53
2018-12-18T13:21:50.754Z,34.97
2018-12-18T13:24:19.501Z,28.63
2018-12-18T13:26:48.279Z,32.90
2018-12-18T13:29:17.158Z,33.87
2018-12-18T13:31:46.092Z,40.23
2018-12-18T13:34:14.887Z,38.10
2018-12-18T13:36:43.694Z,26.37
2018-12-18T13:39:12.435Z,39.30
2018-12-18T13:41:41.148Z,34.80
2018-12-18T13:44:09.898Z,36.77
2018-12-18T13:46:38.594Z,38.97
2018-12-18T13:49:07.271Z,28.60
2018-12-18T13:51:36.492Z,24.03
2018-12-18T13:54:05.254Z,36.00
2018-12-18T13:56:33.938Z,28.57
2018-12-18T13:59:02.886Z,19.93
2018-12-18T14:01:31.533Z,30.30
2018-12-18T14:04:00.467Z,21.60
2018-12-18T14:06:29.304Z,20.70
2018-12-18T14:08:58.017Z,19.23
2018-12-18T14:11:26.810Z,30.10
2018-12-18T14:13:55.744Z,40.17
2018-12-18T14:16:24.504Z,26.07
2018-12-18T14:18:53.318Z,35.83
2018-12-18T14:21:22.073Z,22.60
2018-12-18T14:23:50.856Z,30.87
2018-12-18T14:26:19.666Z,26.40
2018-12-18T14:28:48.387Z,21.00
2018-12-18T14:31:17.055Z,23.00
2018-12-18T14:33:45.825Z,19.23
2018-12-18T14:36:14.591Z,13.60
2018-12-18T14:38:43.323Z,21.93
2018-12-18T14:41:12.110Z,23.40
2018-12-18T14:43:42.043Z,20.83
2018-12-18T14:46:10.897Z,31.80
2018-12-18T14:48:39.687Z,18.80
2018-12-18T14:51:08.469Z,18.47
2018-12-18T14:53:37.223Z,16.07
2018-12-18T14:56:05.947Z,35.60
2018-12-18T14:58:34.684Z,22.50
2018-12-18T15:01:03.495Z,23.23
2018-12-18T15:03:32.244Z,22.97
2018-12-18T15:06:01.119Z,21.30
2018-12-18T15:08:30.854Z,24.63
2018-12-18T15:10:59.659Z,27.13
2018-12-18T15:13:29.799Z,24.40
2018-12-18T15:15:58.624Z,22.73
2018-12-18T15:18:27.352Z,33.73
2018-12-18T15:20:57.126Z,25.33
2018-12-18T15:23:25.837Z,20.00
2018-12-18T15:25:54.594Z,29.23
2018-12-18T15:28:23.306Z,25.03
2018-12-18T15:30:52.511Z,17.70
2018-12-18T15:33:21.296Z,39.97
2018-12-18T15:35:50.377Z,22.70
2018-12-18T15:38:19.095Z,26.83
2018-12-18T15:40:47.876Z,17.03
2018-12-18T15:43:16.707Z,17.43
2018-12-18T15:45:45.501Z,18.37
2018-12-18T15:48:15.922Z,18.07
2018-12-18T15:50:45.178Z,13.87
2018-12-18T15:53:14.048Z,29.70
2018-12-18T15:55:42.890Z,19.57
2018-12-18T15:58:11.632Z,13.83
2018-12-18T16:00:40.415Z,15.10
2018-12-18T16:03:09.202Z,22.27
2018-12-18T16:05:37.961Z,17.83
2018-12-18T16:08:06.636Z,19.90
2018-12-18T16:10:35.337Z,13.30
2018-12-18T16:13:04.132Z,25.90
2018-12-18T16:15:32.961Z,24.63
2018-12-18T16:18:01.611Z,14.67
2018-12-18T16:20:30.315Z,17.97
2018-12-18T16:22:59.142Z,20.60
2018-12-18T16:25:27.815Z,13.63
2018-12-18T16:27:56.543Z,24.77
2018-12-18T16:30:25.298Z,15.80
2018-12-18T16:32:54.020Z,11.30
2018-12-18T16:35:22.821Z,19.17
2018-12-18T16:37:51.541Z,13.63
2018-12-18T16:40:20.310Z,17.83
2018-12-18T16:42:49.121Z,15.97
2018-12-18T16:45:17.838Z,17.87
2018-12-18T16:47:46.511Z,13.60
2018-12-18T16:50:15.220Z,15.17
2018-12-18T16:52:43.981Z,16.23
2018-12-18T16:55:12.725Z,14.90
2018-12-18T16:57:41.454Z,12.27
2018-12-18T17:00:10.750Z,16.67
2018-12-18T17:02:41.253Z,14.97
2018-12-18T17:05:09.969Z,16.47
2018-12-18T17:07:38.654Z,16.00
2018-12-18T17:10:08.387Z,15.83
2018-12-18T17:12:40.118Z,18.87
2018-12-18T17:15:08.895Z,11.27
2018-12-18T17:17:37.643Z,21.53
2018-12-18T17:20:06.924Z,13.80
2018-12-18T17:22:36.855Z,17.17
2018-12-18T17:25:05.694Z,11.20
2018-12-18T17:27:34.489Z,13.87
2018-12-18T17:30:03.314Z,19.13
2018-12-18T17:32:32.025Z,16.30
2018-12-18T17:35:00.822Z,22.10
2018-12-18T17:37:36.037Z,15.73
2018-12-18T17:40:00.342Z,14.83
2018-12-18T17:42:29.103Z,17.50
2018-12-18T17:44:57.779Z,14.73
2018-12-18T17:47:26.563Z,17.90
2018-12-18T17:49:55.334Z,20.63
2018-12-18T17:52:24.070Z,12.23
2018-12-18T17:54:52.747Z,12.23
2018-12-18T17:57:21.535Z,18.93
2018-12-18T17:59:50.247Z,15.70
2018-12-18T18:02:18.994Z,12.20
2018-12-18T18:04:47.706Z,17.53
2018-12-18T18:07:16.395Z,11.00
2018-12-18T18:09:45.072Z,14.63
2018-12-18T18:12:13.927Z,16.50
2018-12-18T18:14:42.649Z,13.50
2018-12-18T18:17:11.378Z,18.43
2018-12-18T18:19:40.150Z,18.77
2018-12-18T18:22:08.855Z,13.10
2018-12-18T18:24:37.627Z,13.50
2018-12-18T18:27:06.460Z,14.97
2018-12-18T18:29:35.156Z,16.57
2018-12-18T18:32:04.277Z,15.53
2018-12-18T18:34:32.996Z,13.43
2018-12-18T18:37:01.729Z,17.80
2018-12-18T18:39:30.512Z,12.20
2018-12-18T18:41:59.227Z,17.17
2018-12-18T18:44:28.935Z,21.07
2018-12-18T18:46:57.704Z,13.80
2018-12-18T18:49:26.472Z,13.70
2018-12-18T18:51:55.212Z,19.80
2018-12-18T18:54:24.000Z,15.13
2018-12-18T18:56:52.841Z,20.07
2018-12-18T18:59:21.552Z,11.70
2018-12-18T19:01:50.203Z,21.07
2018-12-18T19:04:18.874Z,24.67
2018-12-18T19:06:47.831Z,12.30
2018-12-18T19:09:16.617Z,22.20
2018-12-18T19:11:45.419Z,13.10
2018-12-18T19:14:14.206Z,20.50
2018-12-18T19:16:42.958Z,13.93
2018-12-18T19:19:11.704Z,16.63
2018-12-18T19:21:40.386Z,9.47
2018-12-18T19:24:09.141Z,13.43
2018-12-18T19:26:37.810Z,13.23
2018-12-18T19:29:06.579Z,15.23
2018-12-18T19:31:35.326Z,16.50
2018-12-18T19:34:04.115Z,12.40
2018-12-18T19:36:33.007Z,14.47
2018-12-18T19:39:01.678Z,14.17
2018-12-18T19:41:32.300Z,13.73
2018-12-18T19:44:01.042Z,20.40
2018-12-18T19:46:29.849Z,14.47
2018-12-18T19:48:58.580Z,16.30
2018-12-18T19:51:27.337Z,15.70
2018-12-18T19:53:56.071Z,16.63
2018-12-18T19:56:24.839Z,14.30
2018-12-18T19:58:53.603Z,15.03
2018-12-18T20:01:22.363Z,14.20
2018-12-18T20:03:51.355Z,15.37
2018-12-18T20:06:20.085Z,12.90
2018-12-18T20:08:49.295Z,11.80
2018-12-18T20:11:18.103Z,19.80
2018-12-18T20:13:47.088Z,12.40
2018-12-18T20:16:15.805Z,15.33
2018-12-18T20:18:44.838Z,11.97
2018-12-18T20:21:15.561Z,13.63
2018-12-18T20:23:44.301Z,8.90
2018-12-18T20:26:13.076Z,13.27
2018-12-18T20:28:41.792Z,11.97
2018-12-18T20:31:10.479Z,11.07
2018-12-18T20:33:39.250Z,14.13
2018-12-18T20:36:08.022Z,9.37
2018-12-18T20:38:36.777Z,8.47
2018-12-18T20:41:05.572Z,11.30
2018-12-18T20:43:34.283Z,11.40
2018-12-18T20:46:03.109Z,12.23
2018-12-18T20:48:31.821Z,11.27
2018-12-18T20:51:01.051Z,13.23
2018-12-18T20:53:30.254Z,16.27
2018-12-18T20:55:59.165Z,17.73
2018-12-18T20:58:27.846Z,12.97
2018-12-18T21:00:56.662Z,12.00
2018-12-18T21:03:25.493Z,15.87
2018-12-18T21:05:56.332Z,11.10
2018-12-18T21:08:25.282Z,13.27
2018-12-18T21:10:54.083Z,16.30
2018-12-18T21:13:29.260Z,17.60
2018-12-18T21:15:58.318Z,15.83
2018-12-18T21:18:27.210Z,24.37
2018-12-18T21:20:56.135Z,15.00
2018-12-18T21:23:24.983Z,14.27
2018-12-18T21:25:53.899Z,23.63
2018-12-18T21:28:22.785Z,17.10
2018-12-18T21:30:51.718Z,16.40
2018-12-18T21:33:21.528Z,13.67
2018-12-18T21:35:50.586Z,12.60
2018-12-18T21:38:19.390Z,12.20
2018-12-18T21:40:48.195Z,16.97
2018-12-18T21:43:17.012Z,16.40
2018-12-18T21:45:45.837Z,12.60
2018-12-18T21:48:14.750Z,13.73
2018-12-18T21:50:43.558Z,24.03
2018-12-18T21:53:12.442Z,12.87
2018-12-18T21:55:41.279Z,14.27
2018-12-18T21:58:10.062Z,11.90
2018-12-18T22:00:38.905Z,13.27
2018-12-18T22:03:07.745Z,12.23
2018-12-18T22:05:36.650Z,18.53
2018-12-18T22:08:05.571Z,13.33
2018-12-18T22:10:34.415Z,11.40
2018-12-18T22:13:03.417Z,14.17
2018-12-18T22:15:32.186Z,11.90
2018-12-18T22:18:01.011Z,12.97
2018-12-18T22:20:29.834Z,10.63
2018-12-18T22:22:58.664Z,14.67
2018-12-18T22:25:27.399Z,13.60
2018-12-18T22:27:56.413Z,13.10
2018-12-18T22:30:25.365Z,25.00
2018-12-18T22:32:54.034Z,15.50
2018-12-18T22:35:22.747Z,14.30
2018-12-18T22:37:51.476Z,11.20
2018-12-18T22:40:20.235Z,10.93
2018-12-18T22:42:49.098Z,10.90
2018-12-18T22:45:18.217Z,12.80
2018-12-18T22:47:47.050Z,12.07
2018-12-18T22:50:16.158Z,12.23
2018-12-18T22:52:44.965Z,13.33
2018-12-18T22:55:13.742Z,13.03
2018-12-18T22:57:42.553Z,15.60
2018-12-18T23:00:16.300Z,13.20
2018-12-18T23:02:46.975Z,14.40
2018-12-18T23:05:15.950Z,13.37
2018-12-18T23:07:44.747Z,10.77
2018-12-18T23:10:13.419Z,11.27
2018-12-18T23:12:42.235Z,14.00
2018-12-18T23:15:11.174Z,17.07
2018-12-18T23:17:39.929Z,11.40
2018-12-18T23:20:08.670Z,9.97
2018-12-18T23:22:37.399Z,13.70
2018-12-18T23:25:06.209Z,10.13
2018-12-18T23:27:34.990Z,13.27
2018-12-18T23:30:04.746Z,12.90
2018-12-18T23:32:34.632Z,15.00
2018-12-18T23:35:03.430Z,13.87
2018-12-18T23:37:32.252Z,14.20
2018-12-18T23:40:02.086Z,15.77
2018-12-18T23:42:30.864Z,16.60
2018-12-18T23:44:59.590Z,15.90
2018-12-18T23:47:28.261Z,12.40
2018-12-18T23:49:57.176Z,13.83
2018-12-18T23:52:26.241Z,15.17
2018-12-18T23:54:54.978Z,17.60
2018-12-18T23:57:23.720Z,15.67
2018-12-18T23:59:52.440Z,16.17
